EKO weather

Elko Regional Airport
Elko, Nevada, United States

Public forecast

Using degrees Fahrenheit for public forecast. Weather courtesy of forecast.io.

Current aviation weather report (METAR) for Elko Regional Airport

Retrieved 2020/08/08 10:56 UTC (34 minutes ago):

KEKO 081056Z AUTO 00000KT 10SM CLR 13/03 A3012 RMK AO2 SLP144 T01330028

Aviation forecast (TAF) for Elko Regional Airport

Retrieved 2020/08/08 06:22 UTC (5 hours ago):

TAF KEKO 080520Z 0806/0906 05005KT P6SM FEW120 FM081400 VRB06KT P6SM SKC FM082100 23008G16KT P6SM BKN120 FM090200 26008KT P6SM FEW120